Aviation Digital Data Service (ADDS)

Output produced by METARs form (1306 UTC 24 May 2015)
found at http://aviationweather.gov/adds/metars/
 
KCAR 241302Z 2413/2512 25012G25KT P6SM SCT050 
     FM250000 25006KT P6SM SCT250